Latest Weather Observations for Hillarys Point Boat Harbour

IDW60901

Issued at 5:11 pm WST Thursday 4 June 2020 (issued every 10 minutes, with the page automatically refreshed every 10 minutes)

About weather observations | Map of Perth area stations | Latest observations for Perth area | Other Formats
Station Details ID: 009265 Name: HILLARYS BOAT HARBOUR NTC AWS Lat: -31.83 Lon: 115.74 Height: 0.0 m
Data from the previous 72 hours. | See also: Recent months for locations in Western Australia
Date/Time
WST
Temp
°C
App
Temp
°C
Dew
Point
°C
Rel
Hum
%
Delta-T
°C
Wind Press
QNH
hPa
Press
MSL
hPa
Rain since
9am
mm
Dir  Spd
km/h
Gust
km/h
Spd
kts
Gust
kts
04/05:00pm 21.0 - - - - SSE 2 6 1 3 1021.2 1021.2 -
04/04:30pm 20.8 - - - - SSE 4 9 2 5 1021.1 1021.1 -
04/04:00pm 21.2 - - - - S 4 9 2 5 1021.1 1021.1 -
04/03:30pm 21.9 - - - - SSW 7 15 4 8 1021.1 1021.1 -
04/03:00pm 22.2 - - - - SSW 6 11 3 6 1021.0 1021.0 -
04/02:30pm 21.7 - - - - SSW 6 11 3 6 1021.1 1021.1 -
04/02:00pm 21.5 - - - - SSW 6 11 3 6 1021.2 1021.2 -
04/01:30pm 21.5 - - - - SSW 6 11 3 6 1021.5 1021.5 -
04/01:00pm 21.1 - - - - SSW 6 15 3 8 1021.7 1021.7 -
04/12:30pm 20.9 - - - - SW 7 13 4 7 1022.0 1022.0 -
04/12:00pm 21.3 - - - - SSW 7 13 4 7 1022.4 1022.4 -
04/11:30am 23.5 - - - - NNE 4 9 2 5 1022.5 1022.5 -
04/11:00am 23.1 - - - - ENE 6 9 3 5 1022.8 1022.8 -
04/10:30am 22.1 - - - - NNE 4 11 2 6 1023.0 1023.0 -
04/10:00am 21.1 - - - - ENE 11 20 6 11 1023.0 1023.0 -
04/09:30am 19.6 - - - - ENE 11 19 6 10 1022.9 1022.9 -
04/09:00am 17.9 - - - - ENE 11 19 6 10 1022.9 1022.9 -
04/08:30am 17.1 - - - - ENE 11 19 6 10 1022.7 1022.7 -
04/08:00am 16.6 - - - - ENE 13 20 7 11 1022.3 1022.3 -
04/07:30am 16.3 - - - - ENE 11 19 6 10 1022.2 1022.2 -
04/07:00am 16.3 - - - - ENE 11 17 6 9 1022.0 1022.0 -
04/06:30am 16.4 - - - - ENE 9 15 5 8 1021.8 1021.8 -
04/06:00am 16.5 - - - - ENE 9 15 5 8 1021.4 1021.4 -
04/05:30am 16.6 - - - - ENE 11 19 6 10 1021.1 1021.1 -
04/05:00am 16.6 - - - - ENE 11 15 6 8 1021.2 1021.2 -
04/04:30am 16.5 - - - - ENE 9 17 5 9 1021.2 1021.2 -
04/04:00am 16.6 - - - - ENE 11 19 6 10 1021.2 1021.2 -
04/03:30am 16.8 - - - - ENE 11 17 6 9 1021.3 1021.3 -
04/03:00am 17.0 - - - - ENE 7 13 4 7 1021.5 1021.5 -
04/02:30am 17.4 - - - - ENE 9 15 5 8 1021.6 1021.6 -
04/02:00am 17.4 - - - - ENE 7 13 4 7 1021.7 1021.7 -
04/01:30am 17.9 - - - - ENE 9 15 5 8 1021.6 1021.6 -
04/01:00am 18.0 - - - - ENE 7 11 4 6 1021.8 1021.8 -
04/12:30am 18.4 - - - - NE 7 13 4 7 1022.0 1022.0 -
04/12:00am 17.7 - - - - ENE 9 13 5 7 1022.0 1022.0 -
 
Date/Time
WST
Temp
°C
App
Temp
°C
Dew
Point
°C
Rel
Hum
%
Delta-T
°C
Wind Press
QNH
hPa
Press
MSL
hPa
Rain since
9am
mm
Dir  Spd
km/h
Gust
km/h
Spd
kts
Gust
kts
03/11:30pm 17.5 - - - - ENE 9 15 5 8 1022.2 1022.2 -
03/11:00pm 17.4 - - - - ENE 9 15 5 8 1022.4 1022.4 -
03/10:30pm 17.6 - - - - ENE 9 13 5 7 1022.5 1022.5 -
03/10:00pm 18.0 - - - - ENE 7 9 4 5 1022.5 1022.5 -
03/09:30pm 18.2 - - - - ENE 6 9 3 5 1022.5 1022.5 -
03/09:00pm 18.7 - - - - ENE 4 9 2 5 1022.6 1022.6 -
03/08:30pm 18.3 - - - - ENE 6 9 3 5 1022.5 1022.5 -
03/08:00pm 18.6 - - - - ENE 4 6 2 3 1022.6 1022.6 -
03/07:30pm 18.9 - - - - E 2 4 1 2 1022.4 1022.4 -
03/07:00pm 19.2 - - - - CALM 0 2 0 1 1022.2 1022.2 -
03/06:30pm 19.4 - - - - CALM 0 0 0 0 1021.9 1021.9 -
03/06:00pm 19.6 - - - - CALM 0 2 0 1 1021.6 1021.6 -
03/05:30pm 19.9 - - - - SSE 4 6 2 3 1021.4 1021.4 -
03/05:00pm 20.1 - - - - SSE 6 7 3 4 1021.3 1021.3 -
03/04:30pm 20.4 - - - - SSE 4 6 2 3 1021.0 1021.0 -
03/04:00pm 21.2 - - - - SSW 2 6 1 3 1020.9 1020.9 -
03/03:30pm 20.8 - - - - SSE 4 6 2 3 1020.8 1020.8 -
03/03:00pm 21.0 - - - - WSW 4 6 2 3 1020.8 1020.8 -
03/02:30pm 21.2 - - - - WSW 4 7 2 4 1020.7 1020.7 -
03/02:00pm 21.3 - - - - W 6 11 3 6 1020.8 1020.8 -
03/01:30pm 21.5 - - - - WNW 7 11 4 6 1021.1 1021.1 -
03/01:00pm 21.6 - - - - WNW 6 11 3 6 1021.4 1021.4 -
03/12:30pm 21.8 - - - - NW 6 11 3 6 1021.7 1021.7 -
03/12:00pm 22.1 - - - - NNW 7 13 4 7 1022.3 1022.3 -
03/11:30am 21.3 - - - - NNE 9 17 5 9 1022.7 1022.7 -
03/11:00am 20.6 - - - - NNE 9 17 5 9 1023.1 1023.1 -
03/10:30am 19.7 - - - - NNE 11 22 6 12 1023.3 1023.3 -
03/10:00am 18.8 - - - - NNE 13 24 7 13 1023.5 1023.5 -
03/09:30am 18.2 - - - - NNE 11 20 6 11 1023.7 1023.7 -
03/09:00am 17.3 - - - - NE 11 19 6 10 1023.5 1023.5 -
03/08:30am 16.3 - - - - NE 9 15 5 8 1023.4 1023.4 -
03/08:00am 16.1 - - - - N 2 6 1 3 1023.5 1023.5 -
03/07:30am 15.3 - - - - ENE 13 26 7 14 1023.2 1023.2 -
03/07:00am 15.4 - - - - NE 7 19 4 10 1023.0 1023.0 -
03/06:30am 15.7 - - - - NE 9 20 5 11 1022.7 1022.7 -
03/06:00am 15.7 - - - - ENE 9 17 5 9 1022.5 1022.5 -
03/05:30am 16.0 - - - - ENE 13 20 7 11 1022.2 1022.2 -
03/05:00am 15.7 - - - - ENE 13 20 7 11 1022.0 1022.0 -
03/04:30am 16.1 - - - - ENE 13 22 7 12 1021.9 1021.9 -
03/04:00am 16.2 - - - - ENE 17 22 9 12 1022.2 1022.2 -
03/03:30am 15.9 - - - - ENE 15 24 8 13 1022.7 1022.7 -
03/03:00am 15.8 - - - - ENE 13 20 7 11 1023.0 1023.0 -
03/02:30am 16.0 - - - - ENE 11 19 6 10 1023.1 1023.1 -
03/02:00am 16.1 - - - - ENE 13 20 7 11 1023.0 1023.0 -
03/01:30am 15.8 - - - - ENE 11 17 6 9 1023.1 1023.1 -
03/01:00am 15.9 - - - - ENE 11 19 6 10 1023.4 1023.4 -
03/12:30am 15.9 - - - - ENE 11 20 6 11 1023.3 1023.3 -
03/12:00am 16.3 - - - - ENE 11 17 6 9 1023.6 1023.6 -
 
Date/Time
WST
Temp
°C
App
Temp
°C
Dew
Point
°C
Rel
Hum
%
Delta-T
°C
Wind Press
QNH
hPa
Press
MSL
hPa
Rain since
9am
mm
Dir  Spd
km/h
Gust
km/h
Spd
kts
Gust
kts
02/11:30pm 16.3 - - - - ENE 13 22 7 12 1023.5 1023.5 -
02/11:00pm 16.1 - - - - ENE 9 17 5 9 1023.7 1023.7 -
02/10:30pm 16.0 - - - - ENE 9 17 5 9 1023.5 1023.5 -
02/10:00pm 16.1 - - - - ENE 9 15 5 8 1023.7 1023.7 -
02/09:30pm 16.3 - - - - E 9 17 5 9 1023.8 1023.8 -
02/09:00pm 16.6 - - - - E 7 13 4 7 1024.0 1024.0 -
02/08:30pm 17.1 - - - - ENE 9 13 5 7 1024.1 1024.1 -
02/08:00pm 17.3 - - - - E 4 9 2 5 1024.0 1024.0 -
02/07:30pm 17.8 - - - - E 4 9 2 5 1023.9 1023.9 -
02/07:00pm 18.0 - - - - E 4 7 2 4 1023.8 1023.8 -
02/06:30pm 18.4 - - - - E 4 9 2 5 1023.3 1023.3 -
02/06:00pm 18.5 - - - - ESE 2 7 1 4 1023.2 1023.2 -
02/05:30pm 19.1 - - - - ESE 2 6 1 3 1022.9 1022.9 -
02/05:00pm 19.9 - - - - E 2 6 1 3 1022.5 1022.5 -
02/04:30pm 20.5 - - - - ENE 7 13 4 7 1022.6 1022.6 -
02/04:00pm 21.0 - - - - ENE 11 22 6 12 1022.3 1022.3 -
02/03:30pm 21.2 - - - - ENE 11 19 6 10 1022.3 1022.3 -
02/03:00pm 20.9 - - - - ENE 9 17 5 9 1022.7 1022.7 -
02/02:30pm 20.6 - - - - ENE 9 19 5 10 1022.8 1022.8 -
02/02:00pm 20.2 - - - - ENE 9 15 5 8 1023.0 1023.0 -
02/01:30pm 20.0 - - - - ENE 13 20 7 11 1023.3 1023.3 -
02/01:00pm 19.9 - - - - NE 9 24 5 13 1023.7 1023.7 -
02/12:30pm 19.1 - - - - ENE 9 17 5 9 1024.2 1024.2 -
02/12:00pm 17.9 - - - - W 6 11 3 6 1024.8 1024.8 -
02/11:30am 17.7 - - - - ENE 11 17 6 9 1025.1 1025.1 -
02/11:00am 17.4 - - - - ENE 13 24 7 13 1025.3 1025.3 -
02/10:30am 16.8 - - - - ENE 13 22 7 12 1025.6 1025.6 -
02/10:00am 16.4 - - - - ENE 15 24 8 13 1025.8 1025.8 -
02/09:30am 15.0 - - - - ENE 15 26 8 14 1025.8 1025.8 -
02/09:00am 14.7 - - - - ENE 15 26 8 14 1025.7 1025.7 -
02/08:30am 13.2 - - - - ENE 9 15 5 8 1025.9 1025.9 -
02/08:00am 12.7 - - - - E 4 9 2 5 1025.9 1025.9 -
02/07:30am 12.0 - - - - E 2 6 1 3 1025.6 1025.6 -
02/07:00am 11.8 - - - - SE 2 6 1 3 1025.4 1025.4 -
02/06:30am 11.7 - - - - SE 2 4 1 2 1025.3 1025.3 -
02/06:00am 11.8 - - - - SE 4 6 2 3 1025.2 1025.2 -
02/05:30am 12.0 - - - - SE 4 7 2 4 1025.3 1025.3 -
02/05:00am 12.3 - - - - SSE 6 9 3 5 1025.2 1025.2 -
02/04:30am 12.4 - - - - CALM 0 2 0 1 1025.3 1025.3 -
02/04:00am 12.5 - - - - E 4 9 2 5 1025.1 1025.1 -
02/03:30am 12.4 - - - - ENE 7 13 4 7 1025.0 1025.0 -
02/03:00am 12.7 - - - - ENE 9 15 5 8 1025.1 1025.1 -
02/02:30am 12.8 - - - - ENE 9 13 5 7 1025.3 1025.3 -
02/02:00am 12.8 - - - - ENE 7 13 4 7 1025.4 1025.4 -
02/01:30am 13.0 - - - - SSE 2 6 1 3 1025.6 1025.6 -
02/01:00am 13.0 - - - - SE 2 6 1 3 1025.9 1025.9 -
02/12:30am 13.5 - - - - E 2 6 1 3 1025.9 1025.9 -
02/12:00am 13.9 - - - - E 7 13 4 7 1026.2 1026.2 -
 
Date/Time
WST
Temp
°C
App
Temp
°C
Dew
Point
°C
Rel
Hum
%
Delta-T
°C
Wind Press
QNH
hPa
Press
MSL
hPa
Rain since
9am
mm
Dir  Spd
km/h
Gust
km/h
Spd
kts
Gust
kts
01/11:30pm 13.5 - - - - ENE 7 11 4 6 1026.3 1026.3 -
01/11:00pm 13.9 - - - - ENE 6 11 3 6 1026.5 1026.5 -
01/10:30pm 14.3 - - - - E 7 13 4 7 1026.3 1026.3 -
01/10:00pm 14.4 - - - - ENE 6 9 3 5 1026.6 1026.6 -
01/09:30pm 15.0 - - - - E 4 9 2 5 1026.5 1026.5 -
01/09:00pm 15.3 - - - - E 6 9 3 5 1026.4 1026.4 -
01/08:30pm 15.6 - - - - E 4 7 2 4 1026.4 1026.4 -
01/08:00pm 16.0 - - - - E 4 9 2 5 1026.5 1026.5 -
01/07:30pm 16.4 - - - - ESE 2 7 1 4 1026.5 1026.5 -
01/07:00pm 16.6 - - - - ENE 7 13 4 7 1026.4 1026.4 -
01/06:30pm 17.2 - - - - E 6 11 3 6 1026.2 1026.2 -
01/06:00pm 17.7 - - - - E 6 9 3 5 1026.1 1026.1 -
01/05:30pm 17.9 - - - - E 2 6 1 3 1026.1 1026.1 -

Latest Capital City Observations: Canberra | Sydney | Melbourne | Brisbane | Adelaide | Perth | Hobart | Darwin

Other formats

Comma delimited format used in spreadsheet applications
http://www.bom.gov.au/fwo/IDW60901/IDW60901.95605.axf

JavaScript Object Notation format (JSON) in row-major order
http://www.bom.gov.au/fwo/IDW60901/IDW60901.95605.json

Data quality

Most of these data are generated automatically and are frequently updated. Quality checks on data are not normally performed. It is possible for incorrect values to appear. Refer to information at About Latest Weather Observations and please check the disclaimer before using these data.